WetterOnline ( http://www.wetteronline.de )

Wetter aktuell Ratzeburg

Aktuelles Wetter: Lübeck/Blankensee (15m)

6-stündlich | Neueste Meldungen
Ortszeit Temperatur Wetter
Mi, 19.09. 20:00 22.9° C wolkig
Mi, 19.09. 14:00 24.5° C leicht bewölkt
Mi, 19.09. 8:00 14.4° C bewölkt
Mi, 19.09. 2:00 14.2° C fast wolkenlos
Di, 18.09. 20:00 25.7° C fast wolkenlos
Di, 18.09. 14:00 28.5° C fast wolkenlos
Di, 18.09. 8:00 14.4° C wolkenlos
Di, 18.09. 2:00 10.3° C -
Ortszeit Temperatur Wetter
Mi, 19.09. 23:00 17.1° C leicht bewölkt
Mi, 19.09. 22:50 17.1° C leicht bewölkt
Mi, 19.09. 22:40 17.3° C wolkig
Mi, 19.09. 22:30 18.3° C wolkig
Mi, 19.09. 22:20 18.3° C wolkig
Mi, 19.09. 22:10 18.5° C wolkig
Mi, 19.09. 22:00 19.2° C wolkig
Mi, 19.09. 21:30 19.4° C leicht bewölkt
Mi, 19.09. 21:00 21.2° C wolkig
Mi, 19.09. 20:30 21.9° C wolkig
Mi, 19.09. 20:00 22.9° C wolkig
Ortszeit Relative Feuchte Sichtweite
Mi, 19.09. 20:00 57% 23 km
Mi, 19.09. 14:00 48% 26 km
Mi, 19.09. 8:00 92% 13 km
Mi, 19.09. 2:00 99% 10 km
Di, 18.09. 20:00 42% 40 km
Di, 18.09. 14:00 33% 27 km
Di, 18.09. 8:00 67% 30 km
Di, 18.09. 2:00 94% 28 km
Ortszeit Relative Feuchte Sichtweite
Mi, 19.09. 23:00 81% 21 km
Mi, 19.09. 22:50 81% -
Mi, 19.09. 22:40 80% -
Mi, 19.09. 22:30 76% 26 km
Mi, 19.09. 22:20 76% -
Mi, 19.09. 22:10 75% -
Mi, 19.09. 22:00 72% 28 km
Mi, 19.09. 21:30 71% 30 km
Mi, 19.09. 21:00 63% 27 km
Mi, 19.09. 20:30 60% 28 km
Mi, 19.09. 20:00 57% 23 km
Ortszeit Niederschlagsmenge Niederschlagsart
Mi, 19.09. 20:00 0.0 l/m2 in 12 Std. -
Mi, 19.09. 14:00 0.0 l/m2 in 6 Std. -
Mi, 19.09. 8:00 0.0 l/m2 in 12 Std. -
Mi, 19.09. 2:00 0.0 l/m2 in 6 Std. -
Di, 18.09. 20:00 0.0 l/m2 in 12 Std. -
Di, 18.09. 14:00 0.0 l/m2 in 6 Std. -
Di, 18.09. 8:00 0.0 l/m2 in 12 Std. -
Di, 18.09. 2:00 0.0 l/m2 in 6 Std. -
Ortszeit Niederschlagsmenge Niederschlagsart
Mi, 19.09. 23:00 0.0 l/m2 in 1 Std. -
Mi, 19.09. 22:50 keine Meldung -
Mi, 19.09. 22:40 keine Meldung -
Mi, 19.09. 22:30 0.0 l/m2 in 1 Std. -
Mi, 19.09. 22:20 keine Meldung -
Mi, 19.09. 22:10 keine Meldung -
Mi, 19.09. 22:00 0.0 l/m2 in 1 Std. -
Mi, 19.09. 21:30 0.0 l/m2 in 1 Std. -
Mi, 19.09. 21:00 0.0 l/m2 in 1 Std. -
Mi, 19.09. 20:30 0.0 l/m2 in 1 Std. -
Mi, 19.09. 20:00 0.0 l/m2 in 1 Std. -
Ortszeit Stärke Spitze Richtung
km/h Bft. km/h Grad Sektor
Mi, 19.09. 20:00 6 1 33 180° S
Mi, 19.09. 14:00 9 2 24 210° SW
Mi, 19.09. 8:00 4 1 18 200° S
Mi, 19.09. 2:00 4 1 32 200° S
Di, 18.09. 20:00 4 1 32 200° S
Di, 18.09. 14:00 15 3 28 170° S
Di, 18.09. 8:00 7 2 18 150° SO
Di, 18.09. 2:00 4 1 11 160° S
Ortszeit Stärke Spitze Richtung
km/h Bft. km/h Grad Sektor
Mi, 19.09. 23:00 4 1 7 210° SW
Mi, 19.09. 22:50 4 1 - 210° SW
Mi, 19.09. 22:40 - - - - -
Mi, 19.09. 22:30 4 1 7 200° S
Mi, 19.09. 22:20 4 1 - 200° S
Mi, 19.09. 22:10 4 1 - 190° S
Mi, 19.09. 22:00 4 1 11 210° SW
Mi, 19.09. 21:30 4 1 7 220° SW
Mi, 19.09. 21:00 4 1 11 210° SW
Mi, 19.09. 20:30 7 2 11 180° S
Mi, 19.09. 20:00 6 1 19 180° S
Ortszeit Untergrenze Bedeckung Gattung
total tief tief mittel hoch
Mi, 19.09. 20:00 1800 m 8/8 1/8 - - -
Mi, 19.09. 14:00 7800 m 3/8 0/8 - - -
Mi, 19.09. 8:00 6900 m 7/8 6/8 - - -
Mi, 19.09. 2:00 2100 m 1/8 - - - -
Di, 18.09. 20:00 2400 m 1/8 1/8 - - -
Di, 18.09. 14:00 10500 m 2/8 0/8 - - -
Di, 18.09. 8:00 - 0/8 0/8 - - -
Di, 18.09. 2:00 - - - - - -
Ortszeit Bedeckungsgrad in Achtel und Wolkenuntergrenze
Mi, 19.09. 23:00 3(2100m) 3(8400m) 5(10500m)
Mi, 19.09. 22:50 3(2100m) 3(8400m) 5(10500m)
Mi, 19.09. 22:40 3(2100m) 4(8400m) 6(10500m)
Mi, 19.09. 22:30 2(2100m) 4(8400m) 6(9000m)
Mi, 19.09. 22:20 2(2100m) 4(8400m) 6(9000m)
Mi, 19.09. 22:10 1(2100m) 4(8400m) 7(9000m)
Mi, 19.09. 22:00 4(8100m) 6(8700m) 7(10500m)
Mi, 19.09. 21:30 1(2400m) 4(10500m)
Mi, 19.09. 21:00 7(8700m) 7(10500m)
Mi, 19.09. 20:30 2(1800m) 6(8400m) 8(10500m)
Mi, 19.09. 20:00 1(1800m) 7(8700m) 8(10500m)
Ortszeit Luftdruck NN (hPa) Tendenz (hPa in 3 Std.)
Mi, 19.09. 20:00 1015 + 0,1
Mi, 19.09. 14:00 1016 - 0,1
Mi, 19.09. 8:00 1017 + 1,0
Mi, 19.09. 2:00 1015 + 0,9
Di, 18.09. 20:00 1010 + 0,2
Di, 18.09. 14:00 1012 - 1,8
Di, 18.09. 8:00 1014 - 0,9
Di, 18.09. 2:00 1016 - 0,9
Ortszeit Luftdruck NN (hPa) Tendenz (hPa in 3 Std.)
Mi, 19.09. 23:00 1016 + 1,2
Mi, 19.09. 22:50 1016 keine Meldung
Mi, 19.09. 22:40 1016 keine Meldung
Mi, 19.09. 22:30 1016 + 1,4
Mi, 19.09. 22:20 1016 keine Meldung
Mi, 19.09. 22:10 1016 keine Meldung
Mi, 19.09. 22:00 1015 + 1,3
Mi, 19.09. 21:30 1015 + 1,2
Mi, 19.09. 21:00 1015 + 0,8
Mi, 19.09. 20:30 1015 + 0,4
Mi, 19.09. 20:00 1015 + 0,1
Ortszeit Schneehöhe (cm)
Mi, 19.09. 20:00 -
Mi, 19.09. 14:00 -
Mi, 19.09. 8:00 -
Mi, 19.09. 2:00 -
Di, 18.09. 20:00 -
Di, 18.09. 14:00 -
Di, 18.09. 8:00 -
Di, 18.09. 2:00 -
Ortszeit Schneehöhe (cm)
Mi, 19.09. 23:00 -
Mi, 19.09. 22:50 -
Mi, 19.09. 22:40 -
Mi, 19.09. 22:30 -
Mi, 19.09. 22:20 -
Mi, 19.09. 22:10 -
Mi, 19.09. 22:00 -
Mi, 19.09. 21:30 -
Mi, 19.09. 21:00 -
Mi, 19.09. 20:30 -
Mi, 19.09. 20:00 -
Link zu dieser Seite / Seite empfehlen

Das Wetter in ...